Time;durP1;ratioP1;P1;durP2;ratioP2;P2;SDS_P1;SDS_P2;PMS_P1;PMS_P2;Temp;Humidity;BMP_temperature;BMP_pressure;BME280_temperature;BME280_humidity;BME280_pressure;Samples;Min_cycle;Max_cycle;Signal;HPM_P1;HPM_P2
2023/03/30 00:00:57;;;;;;;7.27;2.90;;;14.60;1.00;;;;;;4935198;23;21116;-75
2023/03/30 00:03:23;;;;;;;6.73;3.30;;;14.70;1.00;;;;;;5090306;23;20436;-76
2023/03/30 00:05:55;;;;;;;13.13;2.90;;;14.70;1.00;;;;;;4908792;29;20905;-77
2023/03/30 00:08:29;;;;;;;7.57;3.00;;;14.70;1.00;;;;;;4922525;29;20994;-76
2023/03/30 00:11:10;;;;;;;7.50;2.80;;;14.80;1.00;;;;;;4919872;29;20467;-78
2023/03/30 00:13:37;;;;;;;10.73;2.90;;;14.90;1.00;;;;;;4916379;29;20954;-75
2023/03/30 00:16:05;;;;;;;8.43;3.60;;;15.00;1.00;;;;;;4957287;23;20457;-76
2023/03/30 00:21:08;;;;;;;5.60;2.90;;;15.10;1.00;;;;;;5153515;23;20492;-76
2023/03/30 00:23:33;;;;;;;7.47;3.17;;;15.00;1.00;;;;;;4984627;23;20505;-77
2023/03/30 00:26:00;;;;;;;5.10;2.93;;;15.00;1.00;;;;;;4911201;29;20925;-76
2023/03/30 00:28:25;;;;;;;6.47;3.03;;;15.00;1.00;;;;;;4910167;29;20660;-76
2023/03/30 00:30:55;;;;;;;8.00;3.73;;;15.00;1.00;;;;;;5127084;23;20494;-75
2023/03/30 00:35:53;;;;;;;11.40;3.00;;;14.90;1.00;;;;;;4892755;29;20553;-77
2023/03/30 00:38:22;;;;;;;13.20;3.63;;;14.90;1.00;;;;;;4971064;23;20939;-73
2023/03/30 00:40:52;;;;;;;7.03;2.80;;;14.90;1.00;;;;;;4925134;29;20936;-72
2023/03/30 00:43:19;;;;;;;6.40;3.10;;;14.90;1.00;;;;;;4919671;29;20816;-73
2023/03/30 00:45:44;;;;;;;7.50;3.00;;;14.80;1.00;;;;;;4911942;29;20438;-73
2023/03/30 00:48:26;;;;;;;6.50;3.30;;;14.70;1.00;;;;;;4918756;29;20829;-73
2023/03/30 00:51:01;;;;;;;4.80;3.20;;;14.70;1.00;;;;;;4916006;29;20182;-73
2023/03/30 00:53:32;;;;;;;7.97;3.30;;;14.60;1.00;;;;;;4919398;29;20436;-73
2023/03/30 00:55:59;;;;;;;8.53;3.77;;;14.60;1.00;;;;;;4917364;29;20430;-73
2023/03/30 00:58:27;;;;;;;10.60;3.47;;;14.50;1.00;;;;;;4924733;29;20505;-73
2023/03/30 01:00:53;;;;;;;6.27;3.13;;;14.50;1.00;;;;;;4915637;29;20437;-73
2023/03/30 01:03:24;;;;;;;10.53;3.23;;;14.50;1.00;;;;;;4910212;29;20446;-73
2023/03/30 01:05:51;;;;;;;5.13;3.17;;;14.50;1.00;;;;;;4923513;29;20428;-73
2023/03/30 01:08:17;;;;;;;6.77;3.80;;;14.50;1.00;;;;;;4912604;29;20473;-73
2023/03/30 01:10:45;;;;;;;11.50;3.63;;;14.50;1.00;;;;;;4930067;29;20491;-73
2023/03/30 01:13:13;;;;;;;6.63;3.37;;;14.50;1.00;;;;;;4914742;29;20460;-73
2023/03/30 01:16:04;;;;;;;9.70;3.20;;;14.40;1.00;;;;;;4921487;29;20445;-73
2023/03/30 01:18:53;;;;;;;7.50;3.33;;;14.40;1.00;;;;;;4920883;29;20500;-73
2023/03/30 01:21:35;;;;;;;6.90;3.20;;;14.50;1.00;;;;;;4911796;29;20970;-73
2023/03/30 01:24:31;;;;;;;6.23;3.20;;;14.40;1.00;;;;;;4915950;29;20441;-73
2023/03/30 01:27:08;;;;;;;8.03;3.50;;;16.70;1.00;;;;;;4926053;29;20440;-73
2023/03/30 01:29:49;;;;;;;9.33;3.20;;;14.40;1.00;;;;;;4922167;29;20437;-73
2023/03/30 01:32:51;;;;;;;5.93;3.10;;;14.30;1.00;;;;;;4928556;29;20444;-73
2023/03/30 01:35:58;;;;;;;4.67;2.70;;;14.30;1.00;;;;;;4928028;29;20562;-73
2023/03/30 01:38:51;;;;;;;10.97;3.37;;;14.60;1.00;;;;;;4920244;29;20488;-73
2023/03/30 01:41:25;;;;;;;7.40;3.10;;;14.70;1.00;;;;;;4912058;29;20493;-73
2023/03/30 01:44:06;;;;;;;13.00;2.90;;;14.80;1.00;;;;;;4919142;29;20463;-73
2023/03/30 01:46:46;;;;;;;6.50;3.00;;;14.80;1.00;;;;;;4927652;29;20845;-73
2023/03/30 01:49:40;;;;;;;12.43;3.20;;;14.80;1.00;;;;;;4932384;29;20919;-73
2023/03/30 01:52:20;;;;;;;7.83;3.50;;;14.80;1.00;;;;;;4915026;29;20481;-73
2023/03/30 01:54:59;;;;;;;10.90;3.40;;;14.80;1.00;;;;;;4922390;29;20432;-73
2023/03/30 01:57:36;;;;;;;6.33;3.13;;;14.70;1.00;;;;;;4917279;29;20473;-73
2023/03/30 02:00:14;;;;;;;6.73;2.97;;;14.70;1.00;;;;;;4920040;29;20457;-73
2023/03/30 02:02:47;;;;;;;9.30;3.77;;;14.70;1.00;;;;;;4912701;29;20442;-73
2023/03/30 02:05:16;;;;;;;6.07;3.50;;;14.60;1.00;;;;;;4922498;29;20529;-73
2023/03/30 02:07:45;;;;;;;6.73;3.50;;;14.60;1.00;;;;;;4922723;29;20468;-73
2023/03/30 02:10:15;;;;;;;7.10;3.67;;;14.50;1.00;;;;;;4916141;29;20442;-73
2023/03/30 02:12:41;;;;;;;6.73;3.50;;;14.50;1.00;;;;;;4914223;29;20444;-73
2023/03/30 02:15:09;;;;;;;5.83;3.40;;;14.50;1.00;;;;;;4923844;29;20445;-73
2023/03/30 02:17:36;;;;;;;10.70;3.60;;;14.60;1.00;;;;;;4922139;29;20465;-73
2023/03/30 02:20:07;;;;;;;7.93;3.67;;;14.60;1.00;;;;;;4918027;29;20539;-73
2023/03/30 02:22:33;;;;;;;7.23;3.47;;;14.50;1.00;;;;;;4932651;29;20430;-73
2023/03/30 02:24:59;;;;;;;7.63;3.57;;;14.50;1.00;;;;;;4916925;29;20445;-73
2023/03/30 02:27:25;;;;;;;9.23;3.60;;;14.50;1.00;;;;;;4913076;29;20212;-73
2023/03/30 02:29:51;;;;;;;7.63;3.97;;;14.30;1.00;;;;;;4915029;29;20756;-73
2023/03/30 02:32:24;;;;;;;8.33;3.67;;;14.30;1.00;;;;;;4923711;29;20437;-73
2023/03/30 02:35:07;;;;;;;8.33;3.30;;;14.30;1.00;;;;;;4922286;29;20182;-73
2023/03/30 02:37:47;;;;;;;7.27;3.03;;;14.30;1.00;;;;;;4929601;29;20485;-73
2023/03/30 02:40:34;;;;;;;10.33;3.20;;;14.40;1.00;;;;;;4915757;29;20445;-73
2023/03/30 02:43:22;;;;;;;8.33;3.20;;;14.40;1.00;;;;;;4918262;29;20532;-73
2023/03/30 02:45:51;;;;;;;5.27;2.93;;;14.30;1.00;;;;;;4913428;29;20428;-73
2023/03/30 02:48:45;;;;;;;8.93;3.23;;;14.10;1.00;;;;;;4922682;29;20504;-73
2023/03/30 02:51:13;;;;;;;11.07;4.23;;;14.30;1.00;;;;;;4921915;29;20532;-73
2023/03/30 02:54:00;;;;;;;12.07;3.80;;;14.30;1.00;;;;;;4922143;29;20866;-73
2023/03/30 02:56:54;;;;;;;12.43;4.27;;;14.30;1.00;;;;;;4919023;29;20445;-73
2023/03/30 02:59:26;;;;;;;19.10;3.73;;;14.30;1.00;;;;;;4923368;29;20430;-73
2023/03/30 03:01:56;;;;;;;9.37;3.40;;;14.30;1.00;;;;;;4911981;29;20941;-73
2023/03/30 03:04:24;;;;;;;11.23;4.00;;;14.30;1.00;;;;;;4931303;29;20812;-73
2023/03/30 03:06:51;;;;;;;7.60;3.67;;;14.40;1.00;;;;;;4926393;29;20445;-73
2023/03/30 03:09:18;;;;;;;7.30;3.50;;;14.40;1.00;;;;;;4924058;29;20445;-74
2023/03/30 03:11:44;;;;;;;9.03;3.60;;;14.50;1.00;;;;;;4921776;29;20442;-73
2023/03/30 03:14:10;;;;;;;14.60;3.87;;;14.30;1.00;;;;;;4912341;29;20504;-73
2023/03/30 03:16:36;;;;;;;17.23;4.07;;;14.00;1.00;;;;;;4923218;29;20190;-73
2023/03/30 03:19:03;;;;;;;13.70;4.37;;;13.80;1.00;;;;;;4918901;29;20461;-73
2023/03/30 03:21:28;;;;;;;13.17;4.17;;;13.60;1.00;;;;;;4920866;29;20599;-72
2023/03/30 03:23:54;;;;;;;10.77;4.30;;;13.60;1.00;;;;;;4914226;29;20926;-73
2023/03/30 03:26:20;;;;;;;11.30;3.90;;;13.50;1.00;;;;;;4914195;29;20178;-73
2023/03/30 03:28:45;;;;;;;11.33;3.87;;;13.50;1.00;;;;;;4920820;29;20292;-73
2023/03/30 03:31:12;;;;;;;15.17;4.60;;;13.50;1.00;;;;;;4913590;29;21068;-73
2023/03/30 03:33:37;;;;;;;11.03;3.77;;;13.50;1.00;;;;;;4929192;29;20209;-73
2023/03/30 03:36:03;;;;;;;18.43;4.30;;;13.60;1.00;;;;;;4917437;29;20533;-73
2023/03/30 03:38:29;;;;;;;15.43;3.90;;;13.70;1.00;;;;;;4921048;29;20268;-73
2023/03/30 03:40:57;;;;;;;11.90;4.30;;;13.70;1.00;;;;;;4917059;29;20248;-73
2023/03/30 03:43:23;;;;;;;16.63;4.97;;;13.70;1.00;;;;;;4922526;29;20441;-73
2023/03/30 03:45:49;;;;;;;21.03;7.53;;;13.80;1.00;;;;;;4914063;29;20970;-73
2023/03/30 03:48:17;;;;;;;15.97;5.83;;;13.80;1.00;;;;;;4919020;29;20590;-73
2023/03/30 03:50:43;;;;;;;14.10;4.73;;;13.90;1.00;;;;;;4927982;29;20511;-73
2023/03/30 03:53:10;;;;;;;10.67;3.93;;;13.90;1.00;;;;;;4923722;29;20532;-73
2023/03/30 03:55:35;;;;;;;19.77;5.13;;;14.10;1.00;;;;;;4913318;29;20489;-73
2023/03/30 03:58:02;;;;;;;15.03;3.67;;;14.10;1.00;;;;;;4913737;29;20493;-73
2023/03/30 04:00:28;;;;;;;11.23;4.00;;;14.20;1.00;;;;;;4920951;29;20189;-72
2023/03/30 04:02:54;;;;;;;12.10;3.20;;;14.20;1.00;;;;;;4924883;29;20512;-73
2023/03/30 04:05:19;;;;;;;12.47;4.20;;;14.10;1.00;;;;;;4920963;29;20442;-73
2023/03/30 04:07:45;;;;;;;15.80;4.20;;;14.20;1.00;;;;;;4927430;29;20685;-73
2023/03/30 04:10:12;;;;;;;11.60;3.77;;;14.20;1.00;;;;;;4925454;29;20193;-73
2023/03/30 04:12:38;;;;;;;12.03;3.77;;;14.20;1.00;;;;;;4921088;29;20202;-73
2023/03/30 04:15:05;;;;;;;9.80;3.80;;;14.20;1.00;;;;;;4911025;29;21050;-73
2023/03/30 04:17:32;;;;;;;14.93;4.20;;;14.20;1.00;;;;;;4918936;29;20708;-73
2023/03/30 04:20:03;;;;;;;14.27;3.80;;;14.20;1.00;;;;;;4916353;29;20437;-73
2023/03/30 04:22:32;;;;;;;11.93;3.50;;;14.20;1.00;;;;;;4914936;29;20972;-73
2023/03/30 04:24:58;;;;;;;12.53;4.30;;;14.20;1.00;;;;;;4925547;29;20437;-73
2023/03/30 04:27:27;;;;;;;18.00;3.90;;;14.20;1.00;;;;;;4930969;29;20480;-73
2023/03/30 04:29:56;;;;;;;15.77;4.20;;;14.30;1.00;;;;;;4921988;29;20445;-72
2023/03/30 04:32:22;;;;;;;10.80;3.80;;;14.30;1.00;;;;;;4928826;29;20437;-73
2023/03/30 04:34:53;;;;;;;16.90;3.80;;;14.40;1.00;;;;;;4922958;29;20453;-73
2023/03/30 04:37:29;;;;;;;8.10;3.10;;;14.50;1.00;;;;;;4925650;29;20465;-73
2023/03/30 04:39:56;;;;;;;18.13;3.77;;;14.60;1.00;;;;;;4918870;29;20816;-73
2023/03/30 04:42:28;;;;;;;15.93;3.30;;;14.60;1.00;;;;;;4924260;29;20439;-73
2023/03/30 04:44:57;;;;;;;16.60;4.37;;;14.70;1.00;;;;;;4920360;29;20623;-73
2023/03/30 04:47:24;;;;;;;11.83;3.57;;;14.70;1.00;;;;;;4910913;29;20835;-73
2023/03/30 04:49:50;;;;;;;12.50;3.87;;;14.60;1.00;;;;;;4932058;29;20440;-73
2023/03/30 04:52:16;;;;;;;8.20;2.93;;;14.50;1.00;;;;;;4928467;29;20662;-73
2023/03/30 04:54:41;;;;;;;12.50;3.60;;;14.40;1.00;;;;;;4935325;29;20928;-73
2023/03/30 04:57:07;;;;;;;16.80;4.00;;;14.40;1.00;;;;;;4923798;29;20287;-73
2023/03/30 04:59:32;;;;;;;12.57;3.57;;;14.40;1.00;;;;;;4915772;29;20794;-73
2023/03/30 05:01:58;;;;;;;19.53;4.67;;;14.30;1.00;;;;;;4921268;29;20709;-73
2023/03/30 05:04:23;;;;;;;18.27;4.07;;;14.30;1.00;;;;;;4919673;29;20190;-73
2023/03/30 05:06:49;;;;;;;10.80;4.13;;;14.30;1.00;;;;;;4928445;29;20196;-73
2023/03/30 05:09:15;;;;;;;13.77;4.00;;;14.20;1.00;;;;;;4929642;29;20190;-73
2023/03/30 05:11:40;;;;;;;12.80;4.30;;;14.10;1.00;;;;;;4915698;29;20272;-73
2023/03/30 05:14:06;;;;;;;18.80;4.30;;;13.90;1.00;;;;;;4917862;29;20956;-73
2023/03/30 05:16:32;;;;;;;12.53;3.50;;;13.80;1.00;;;;;;4920453;29;20189;-73
2023/03/30 05:18:57;;;;;;;15.97;4.07;;;13.70;1.00;;;;;;4922068;29;20676;-73
2023/03/30 05:21:23;;;;;;;11.37;4.17;;;13.70;1.00;;;;;;4915892;29;20217;-73
2023/03/30 05:23:48;;;;;;;13.50;4.20;;;13.70;1.00;;;;;;4925323;29;20612;-72
2023/03/30 05:26:14;;;;;;;12.37;4.00;;;13.60;1.00;;;;;;4914512;29;20186;-73
2023/03/30 05:28:41;;;;;;;15.00;4.07;;;13.50;1.00;;;;;;4912542;29;21606;-73
2023/03/30 05:31:07;;;;;;;20.17;5.00;;;13.40;1.00;;;;;;4917182;29;20211;-73
2023/03/30 05:33:33;;;;;;;17.50;5.13;;;13.30;1.00;;;;;;4919437;29;20939;-73
2023/03/30 05:35:58;;;;;;;20.00;4.70;;;13.30;1.00;;;;;;4935274;29;20200;-73
2023/03/30 05:38:24;;;;;;;16.80;4.93;;;13.30;1.00;;;;;;4921841;29;20210;-73
2023/03/30 05:40:53;;;;;;;14.30;4.47;;;13.30;1.00;;;;;;4924371;29;20181;-72
2023/03/30 05:43:19;;;;;;;14.47;4.57;;;13.20;1.00;;;;;;4919984;29;20255;-73
2023/03/30 05:45:45;;;;;;;15.77;4.10;;;13.20;1.00;;;;;;4925114;29;20955;-73
2023/03/30 05:48:10;;;;;;;16.97;4.77;;;13.20;1.00;;;;;;4929896;29;20473;-72
2023/03/30 05:50:36;;;;;;;10.63;4.10;;;13.20;1.00;;;;;;4929525;29;20573;-73
2023/03/30 05:53:02;;;;;;;18.27;5.30;;;13.00;1.00;;;;;;4925869;29;20201;-73
2023/03/30 05:55:27;;;;;;;17.60;4.90;;;13.00;4.60;;;;;;4917616;29;20190;-73
2023/03/30 05:57:53;;;;;;;14.53;5.13;;;13.00;10.20;;;;;;4927972;29;20691;-72
2023/03/30 06:00:20;;;;;;;14.67;5.80;;;12.90;10.50;;;;;;4925397;29;20196;-73
2023/03/30 06:02:45;;;;;;;16.52;4.85;;;13.00;12.10;;;;;;4915183;29;20531;-72
2023/03/30 06:05:11;;;;;;;16.50;4.50;;;13.10;13.10;;;;;;4915522;29;20205;-73
2023/03/30 06:07:37;;;;;;;22.83;4.80;;;13.10;19.20;;;;;;4915307;29;20214;-73
2023/03/30 06:10:05;;;;;;;11.87;4.90;;;13.10;20.40;;;;;;4915789;29;20774;-73
2023/03/30 06:12:31;;;;;;;15.63;4.50;;;13.20;22.40;;;;;;4915558;29;20190;-72
2023/03/30 06:14:57;;;;;;;23.00;5.33;;;13.20;24.90;;;;;;4915473;29;20528;-72
2023/03/30 06:17:23;;;;;;;11.90;4.30;;;13.20;24.50;;;;;;4914376;29;21091;-72
2023/03/30 06:19:48;;;;;;;15.43;5.20;;;13.20;25.90;;;;;;4915940;29;20196;-72
2023/03/30 06:22:14;;;;;;;13.90;4.33;;;13.20;24.70;;;;;;4916126;29;20186;-73
2023/03/30 06:24:39;;;;;;;16.10;4.90;;;13.20;28.70;;;;;;4915477;29;20190;-72
2023/03/30 06:27:05;;;;;;;16.60;5.03;;;13.10;28.10;;;;;;4914931;29;20268;-73
2023/03/30 06:29:31;;;;;;;17.87;4.73;;;13.10;30.00;;;;;;4915982;29;20604;-73
2023/03/30 06:31:57;;;;;;;15.27;4.90;;;13.10;40.50;;;;;;4921630;29;20619;-72
2023/03/30 06:34:23;;;;;;;15.37;4.90;;;13.20;40.80;;;;;;4923627;29;20223;-71
2023/03/30 06:36:49;;;;;;;19.57;4.63;;;13.20;41.20;;;;;;4915479;29;20494;-72
2023/03/30 06:39:16;;;;;;;16.60;5.17;;;;;;;;;;4981672;23;20308;-76
2023/03/30 06:44:16;;;;;;;17.53;5.17;;;13.20;38.70;;;;;;4942627;23;20468;-78
2023/03/30 06:46:41;;;;;;;17.30;5.87;;;13.30;45.70;;;;;;5175600;23;20541;-76
2023/03/30 06:49:07;;;;;;;33.57;7.40;;;13.20;48.40;;;;;;4965402;23;20535;-76
2023/03/30 06:51:34;;;;;;;19.90;5.90;;;13.30;51.10;;;;;;4981922;23;20228;-78
2023/03/30 06:54:00;;;;;;;18.03;5.93;;;13.30;58.90;;;;;;4988933;23;20229;-77
2023/03/30 06:56:26;;;;;;;12.17;5.23;;;13.20;62.10;;;;;;4933596;29;20445;-76
2023/03/30 07:01:32;;;;;;;15.53;6.13;;;;;;;;;;5158489;23;20951;31
2023/03/30 07:03:58;;;;;;;20.47;6.30;;;13.20;59.10;;;;;;4996009;23;20584;-77
2023/03/30 07:09:05;;;;;;;21.97;6.93;;;13.30;62.90;;;;;;5147119;23;20988;-77
2023/03/30 07:14:00;;;;;;;14.70;6.00;;;13.40;59.70;;;;;;4933774;23;20533;-77
2023/03/30 07:18:58;;;;;;;13.80;6.03;;;13.20;61.70;;;;;;4958943;23;20553;-77
2023/03/30 07:24:07;;;;;;;16.77;5.77;;;13.10;67.10;;;;;;4978682;23;20773;-76
2023/03/30 07:26:32;;;;;;;25.57;6.40;;;13.00;69.60;;;;;;5365067;23;20465;-76
2023/03/30 07:31:36;;;;;;;14.73;6.20;;;13.00;71.60;;;;;;4923896;26;20684;-77
2023/03/30 07:34:03;;;;;;;12.20;5.17;;;13.00;75.20;;;;;;4929781;29;20489;-75
2023/03/30 07:36:28;;;;;;;17.83;4.80;;;14.70;80.30;;;;;;4922850;29;20233;-74
2023/03/30 07:38:54;;;;;;;9.40;5.33;;;12.90;73.40;;;;;;4922142;29;20468;-75
2023/03/30 07:41:20;;;;;;;8.20;4.80;;;12.90;77.60;;;;;;4933187;29;20196;-76
2023/03/30 07:43:45;;;;;;;17.43;6.07;;;11.90;72.60;;;;;;4981851;23;20640;-70
2023/03/30 07:46:11;;;;;;;18.47;5.90;;;13.00;77.50;;;;;;4921887;29;20282;-71
2023/03/30 07:48:37;;;;;;;14.43;5.60;;;13.00;80.20;;;;;;4920846;29;20185;-71
2023/03/30 07:51:08;;;;;;;15.70;6.20;;;13.00;84.50;;;;;;4925538;29;20193;-71
2023/03/30 07:53:34;;;;;;;14.23;5.23;;;13.00;85.40;;;;;;4914254;29;20549;-70
2023/03/30 07:56:00;;;;;;;25.53;5.90;;;;;;;;;;4908213;29;20650;-72
2023/03/30 07:58:27;;;;;;;14.10;5.50;;;12.90;77.60;;;;;;4921744;29;20632;-71
2023/03/30 08:00:53;;;;;;;15.70;4.90;;;12.90;78.90;;;;;;4911829;29;20465;-72
2023/03/30 08:03:23;;;;;;;15.60;5.20;;;12.90;80.80;;;;;;4913943;29;20911;-71
2023/03/30 08:05:59;;;;;;;15.70;5.30;;;12.90;78.80;;;;;;4913407;29;20186;-71
2023/03/30 08:08:25;;;;;;;18.70;5.40;;;12.90;83.20;;;;;;4912082;29;20445;-71
2023/03/30 08:10:51;;;;;;;15.10;5.50;;;12.90;85.10;;;;;;4919276;29;20442;-72
2023/03/30 08:13:17;;;;;;;12.93;5.67;;;13.10;82.00;;;;;;4910786;29;20996;-72
2023/03/30 08:15:42;;;;;;;15.70;5.50;;;13.10;79.70;;;;;;4909766;29;20196;-72
2023/03/30 08:18:08;;;;;;;19.10;5.70;;;13.10;76.40;;;;;;4910768;29;20210;-71
2023/03/30 08:20:36;;;;;;;12.63;5.00;;;13.20;82.10;;;;;;4909956;29;20270;-71
2023/03/30 08:23:05;;;;;;;14.43;4.83;;;13.40;71.40;;;;;;4903992;29;20948;-71
2023/03/30 08:25:31;;;;;;;11.80;5.60;;;13.50;71.60;;;;;;4911699;29;20437;-70
2023/03/30 08:27:57;;;;;;;18.70;5.63;;;13.70;64.70;;;;;;4912684;29;20517;-71
2023/03/30 08:30:23;;;;;;;21.33;5.77;;;13.80;64.00;;;;;;4907202;29;20545;-72
2023/03/30 08:32:48;;;;;;;17.20;5.50;;;13.80;39.10;;;;;;4909364;29;20209;-71
2023/03/30 08:35:14;;;;;;;11.00;4.87;;;13.80;51.80;;;;;;4903916;29;20204;-70
2023/03/30 08:37:39;;;;;;;16.57;5.47;;;13.80;51.00;;;;;;4907179;29;20236;-75
2023/03/30 08:40:08;;;;;;;15.43;5.47;;;13.60;50.70;;;;;;4917533;29;20709;-71
2023/03/30 08:42:52;;;;;;;15.90;6.13;;;13.70;57.50;;;;;;4910651;29;20205;-71
2023/03/30 08:45:18;;;;;;;14.17;4.77;;;13.80;59.20;;;;;;4909395;29;20461;-72
2023/03/30 08:47:50;;;;;;;9.70;5.00;;;13.90;53.40;;;;;;4907407;29;20474;-72
2023/03/30 08:50:32;;;;;;;10.27;5.10;;;14.00;51.20;;;;;;4906660;29;20648;-72
2023/03/30 08:52:58;;;;;;;15.50;5.70;;;14.00;47.70;;;;;;4911493;29;20466;-72
2023/03/30 08:55:33;;;;;;;17.73;4.70;;;14.00;41.40;;;;;;4912297;29;20438;-72
2023/03/30 08:58:11;;;;;;;7.37;4.20;;;14.40;41.60;;;;;;4908209;29;20215;-72
2023/03/30 09:01:07;;;;;;;14.37;5.40;;;14.50;41.80;;;;;;4909470;29;20446;-72
2023/03/30 09:03:59;;;;;;;9.67;4.63;;;14.50;39.50;;;;;;4905728;29;21233;-71
2023/03/30 09:06:30;;;;;;;12.83;5.23;;;14.60;41.90;;;;;;4913454;29;20448;-72
2023/03/30 09:08:56;;;;;;;9.67;4.10;;;14.40;41.60;;;;;;4910057;29;20465;-72
2023/03/30 09:11:31;;;;;;;9.90;4.53;;;14.30;37.80;;;;;;4912199;29;20449;-72
2023/03/30 09:14:01;;;;;;;13.37;4.20;;;14.20;35.30;;;;;;4927045;29;20833;-72
2023/03/30 09:16:30;;;;;;;10.00;4.40;;;14.10;41.40;;;;;;4909796;29;20767;-72
2023/03/30 09:18:58;;;;;;;13.13;4.60;;;14.00;41.30;;;;;;4900325;29;20995;-72
2023/03/30 09:21:27;;;;;;;18.23;5.70;;;14.00;49.30;;;;;;4909522;29;20529;-72
2023/03/30 09:23:57;;;;;;;14.60;4.40;;;14.00;50.90;;;;;;4912342;29;20446;-72
2023/03/30 09:26:49;;;;;;;12.73;4.40;;;13.90;41.40;;;;;;4913045;29;21224;-72
2023/03/30 09:29:25;;;;;;;15.53;4.87;;;13.90;41.30;;;;;;4913050;29;20426;-72
2023/03/30 09:32:02;;;;;;;10.37;4.50;;;13.90;39.20;;;;;;4910892;29;20660;-72
2023/03/30 09:34:42;;;;;;;9.93;4.10;;;13.90;41.30;;;;;;4912234;29;20513;-72
2023/03/30 09:37:17;;;;;;;8.93;3.63;;;13.80;41.20;;;;;;4908230;29;20469;-72
2023/03/30 09:39:44;;;;;;;8.43;3.67;;;13.80;41.10;;;;;;4914045;29;20463;-72
2023/03/30 09:42:13;;;;;;;15.50;4.73;;;14.00;39.10;;;;;;4921661;29;20505;-72
2023/03/30 09:44:54;;;;;;;5.03;3.50;;;14.00;41.40;;;;;;4915772;29;20430;-71
2023/03/30 09:47:28;;;;;;;9.20;3.83;;;14.20;40.40;;;;;;4916298;29;20426;-72
2023/03/30 09:49:56;;;;;;;7.27;4.30;;;14.30;41.60;;;;;;4915687;29;20425;-72
2023/03/30 09:52:25;;;;;;;4.50;3.07;;;14.10;35.40;;;;;;4919798;29;20463;-72
2023/03/30 09:54:50;;;;;;;7.57;3.70;;;14.00;27.00;;;;;;4920608;29;20513;-72
2023/03/30 09:57:28;;;;;;;6.40;3.63;;;14.00;41.10;;;;;;4915884;29;20824;-72
2023/03/30 09:59:54;;;;;;;13.27;4.03;;;14.00;20.10;;;;;;4915145;29;20177;-72
2023/03/30 10:02:21;;;;;;;8.60;3.40;;;14.20;21.50;;;;;;4920767;29;20969;-72
2023/03/30 10:04:55;;;;;;;4.10;2.97;;;14.30;23.00;;;;;;4915458;29;20426;-72
2023/03/30 10:07:22;;;;;;;13.17;4.70;;;14.40;11.40;;;;;;4915905;29;20430;-72
2023/03/30 10:09:47;;;;;;;6.70;3.37;;;14.50;12.10;;;;;;4914030;29;20533;-72
2023/03/30 10:12:14;;;;;;;7.57;3.73;;;14.50;13.80;;;;;;4915538;29;20616;-72
2023/03/30 10:14:40;;;;;;;7.80;3.73;;;14.70;11.80;;;;;;4913843;29;20241;-71
2023/03/30 10:17:06;;;;;;;8.60;3.50;;;14.90;5.10;;;;;;4916579;29;20473;-72
2023/03/30 10:19:33;;;;;;;8.53;3.83;;;15.20;10.40;;;;;;4915303;29;20933;-72
2023/03/30 10:22:02;;;;;;;10.53;4.10;;;15.60;1.00;;;;;;4916724;29;20449;-72
2023/03/30 10:24:30;;;;;;;9.03;3.50;;;15.50;1.00;;;;;;4915232;29;20422;-72
2023/03/30 10:27:08;;;;;;;6.73;3.93;;;15.80;1.00;;;;;;4915296;29;20441;-71
2023/03/30 10:29:34;;;;;;;7.40;3.90;;;15.90;1.00;;;;;;4914096;29;20517;-72
2023/03/30 10:32:22;;;;;;;6.43;3.40;;;16.10;1.00;;;;;;4916487;29;21004;-72
2023/03/30 10:34:55;;;;;;;7.97;3.63;;;16.00;1.00;;;;;;4914768;29;20261;-72
2023/03/30 10:37:43;;;;;;;11.37;3.90;;;16.20;1.00;;;;;;4915334;29;20477;-72
2023/03/30 10:40:26;;;;;;;9.53;4.03;;;16.30;1.00;;;;;;4908338;29;20418;-72
2023/03/30 10:42:56;;;;;;;11.10;4.10;;;16.60;1.00;;;;;;4912548;29;21019;-72
2023/03/30 10:45:52;;;;;;;8.47;3.60;;;16.90;1.00;;;;;;4912534;29;20470;-72
2023/03/30 10:48:36;;;;;;;6.93;4.00;;;16.90;1.00;;;;;;4911500;29;20453;-71
2023/03/30 10:51:08;;;;;;;13.70;4.10;;;16.40;1.00;;;;;;4914660;29;20429;-72
2023/03/30 10:53:40;;;;;;;7.13;3.57;;;16.60;1.00;;;;;;4915629;29;20568;-71
2023/03/30 10:56:18;;;;;;;14.00;4.00;;;16.90;1.00;;;;;;4921687;29;20441;-72
2023/03/30 10:58:51;;;;;;;7.97;3.83;;;17.30;1.00;;;;;;4913585;29;20465;-73
2023/03/30 11:01:28;;;;;;;9.20;3.77;;;17.60;1.00;;;;;;4917275;29;20989;-74
2023/03/30 11:03:58;;;;;;;9.73;4.00;;;17.60;1.00;;;;;;4912415;29;20462;-73
2023/03/30 11:06:30;;;;;;;10.07;4.27;;;18.00;1.00;;;;;;4912062;29;20450;-72
2023/03/30 11:09:00;;;;;;;6.50;4.00;;;18.40;1.00;;;;;;4916102;29;20457;-73
2023/03/30 11:11:38;;;;;;;7.60;4.20;;;18.40;1.00;;;;;;4915126;29;21004;-74
2023/03/30 11:14:10;;;;;;;9.03;4.17;;;18.20;1.00;;;;;;4912164;29;20466;-72
2023/03/30 11:17:00;;;;;;;8.50;4.27;;;17.90;1.00;;;;;;4914129;29;20516;-73
2023/03/30 11:19:38;;;;;;;13.03;4.03;;;17.70;1.00;;;;;;4912761;29;20422;-72
2023/03/30 11:22:30;;;;;;;10.23;4.20;;;19.50;1.00;;;;;;4921607;29;20477;-72
2023/03/30 11:24:56;;;;;;;11.20;4.10;;;19.70;1.00;;;;;;4911613;29;20452;-72
2023/03/30 11:27:22;;;;;;;6.77;3.80;;;21.00;1.00;;;;;;4913921;29;20449;-73
2023/03/30 11:29:50;;;;;;;7.30;3.23;;;21.40;1.00;;;;;;4914683;29;20434;-73
2023/03/30 11:32:39;;;;;;;9.30;3.87;;;21.50;1.00;;;;;;4911858;29;20633;-74
2023/03/30 11:35:33;;;;;;;8.83;3.73;;;21.10;1.00;;;;;;4918437;29;20529;-72
2023/03/30 11:38:05;;;;;;;10.83;3.47;;;20.60;1.00;;;;;;4919435;29;20987;-73
2023/03/30 11:40:41;;;;;;;7.00;3.13;;;20.50;1.00;;;;;;4905906;29;20807;-73
2023/03/30 11:43:10;;;;;;;10.97;3.10;;;21.80;1.00;;;;;;4917447;29;20545;-73
2023/03/30 11:46:11;;;;;;;5.43;3.03;;;24.20;1.00;;;;;;4910016;29;20457;-73
2023/03/30 11:48:56;;;;;;;7.03;2.70;;;23.50;1.00;;;;;;4908685;29;20441;-73
2023/03/30 11:51:31;;;;;;;8.43;3.10;;;22.20;1.00;;;;;;4914223;29;20854;-73
2023/03/30 11:54:01;;;;;;;8.47;3.43;;;22.40;1.00;;;;;;4912194;29;20445;-73
2023/03/30 11:56:40;;;;;;;4.60;2.67;;;23.70;1.00;;;;;;4913969;29;20457;-73
2023/03/30 11:59:21;;;;;;;7.33;3.60;;;23.00;1.00;;;;;;4914306;29;21086;-73
2023/03/30 12:02:40;;;;;;;6.77;3.07;;;21.70;1.00;;;;;;4910943;29;20429;-73
2023/03/30 12:05:15;;;;;;;7.30;3.40;;;22.40;1.00;;;;;;4876386;29;20485;-73
2023/03/30 12:07:56;;;;;;;8.60;3.20;;;21.60;1.00;;;;;;4899231;29;20963;-73
2023/03/30 12:10:33;;;;;;;8.20;3.13;;;20.50;1.00;;;;;;4932895;29;20790;-73
2023/03/30 12:13:00;;;;;;;5.67;2.70;;;19.60;1.00;;;;;;4913233;29;20570;-73
2023/03/30 12:15:54;;;;;;;7.23;3.00;;;19.00;1.00;;;;;;4913631;29;20426;-73
2023/03/30 12:18:37;;;;;;;6.17;3.30;;;18.80;1.00;;;;;;4908335;29;20839;-73
2023/03/30 12:21:31;;;;;;;5.73;3.03;;;18.70;1.00;;;;;;4914142;29;20929;-73
2023/03/30 12:24:19;;;;;;;7.70;3.13;;;19.60;1.00;;;;;;4908686;29;20461;-73
2023/03/30 12:26:45;;;;;;;6.47;3.00;;;19.90;1.00;;;;;;4915643;29;20433;-72
2023/03/30 12:29:13;;;;;;;9.17;2.93;;;19.60;1.00;;;;;;4911974;29;20499;-73
2023/03/30 12:31:54;;;;;;;7.90;3.20;;;19.30;1.00;;;;;;4913007;29;20613;-73
2023/03/30 12:34:22;;;;;;;9.40;3.10;;;19.30;1.00;;;;;;4907019;29;20432;-72
2023/03/30 12:37:01;;;;;;;5.37;3.00;;;19.50;1.00;;;;;;4913359;29;21023;-72
2023/03/30 12:39:31;;;;;;;7.67;2.70;;;19.30;1.00;;;;;;4912014;29;20537;-73
2023/03/30 12:42:05;;;;;;;6.23;2.73;;;18.80;1.00;;;;;;4912637;29;20916;-73
2023/03/30 12:44:39;;;;;;;6.63;3.07;;;18.80;1.00;;;;;;4911793;29;21013;-74
2023/03/30 12:47:38;;;;;;;7.87;3.67;;;18.50;1.00;;;;;;4918716;29;20453;-73
2023/03/30 12:50:37;;;;;;;4.93;2.60;;;18.00;1.00;;;;;;4890673;29;20453;-74
2023/03/30 12:53:11;;;;;;;5.53;2.13;;;18.00;1.00;;;;;;4911334;29;20454;-74
2023/03/30 12:55:43;;;;;;;4.60;2.30;;;18.10;1.00;;;;;;4913384;29;20484;-74
2023/03/30 12:58:31;;;;;;;4.87;2.47;;;18.10;1.00;;;;;;4911415;29;20474;-73
2023/03/30 13:01:09;;;;;;;3.83;2.07;;;18.00;1.00;;;;;;4910509;29;20909;-73
2023/03/30 13:03:48;;;;;;;5.47;2.47;;;17.80;1.00;;;;;;4911803;29;20461;-74
2023/03/30 13:06:40;;;;;;;3.43;2.33;;;17.60;1.00;;;;;;4908815;29;20429;-74
2023/03/30 13:09:18;;;;;;;4.20;2.40;;;18.00;1.00;;;;;;4912267;29;20461;-71
2023/03/30 13:11:55;;;;;;;4.00;1.90;;;20.70;1.00;;;;;;4913182;29;20940;-71
2023/03/30 13:14:29;;;;;;;6.27;2.90;;;22.10;1.00;;;;;;4910483;29;20434;-71
2023/03/30 13:16:55;;;;;;;6.80;2.23;;;23.20;1.00;;;;;;4918631;29;20432;-70
2023/03/30 13:19:32;;;;;;;4.73;2.03;;;23.30;1.00;;;;;;4915098;29;20429;-71
2023/03/30 13:22:10;;;;;;;9.23;2.33;;;26.80;1.00;;;;;;4916601;29;20181;-71
2023/03/30 13:24:42;;;;;;;5.00;2.13;;;27.10;1.00;;;;;;4921341;29;20428;-72
2023/03/30 13:27:13;;;;;;;9.63;2.10;;;27.90;1.00;;;;;;4915168;29;20464;-72
2023/03/30 13:29:40;;;;;;;4.50;2.20;;;27.10;1.00;;;;;;4915170;29;20520;-72
2023/03/30 13:32:09;;;;;;;5.57;2.13;;;27.30;1.00;;;;;;4923180;29;20441;-72
2023/03/30 13:34:34;;;;;;;5.40;1.80;;;27.20;1.00;;;;;;4919832;29;20444;-72
2023/03/30 13:37:42;;;;;;;3.43;1.67;;;26.90;1.00;;;;;;4916661;29;20189;-73